Time;durP1;ratioP1;P1;durP2;ratioP2;P2;SDS_P1;SDS_P2;PMS_P1;PMS_P2;Temp;Humidity;BMP_temperature;BMP_pressure;BME280_temperature;BME280_humidity;BME280_pressure;Samples;Min_cycle;Max_cycle;Signal;HPM_P1;HPM_P2
2021/05/31 00:00:36;;;;;;;5.22;1.95;;;16.60;80.00;;;;;;5067196;28;20016;-74
2021/05/31 00:03:03;;;;;;;4.88;1.63;;;16.60;80.20;;;;;;5063997;28;20021;-70
2021/05/31 00:05:31;;;;;;;9.18;2.13;;;16.60;80.40;;;;;;5067782;28;20024;-78
2021/05/31 00:07:58;;;;;;;5.15;1.30;;;16.60;80.70;;;;;;5066105;28;20017;-78
2021/05/31 00:10:25;;;;;;;8.02;1.90;;;16.60;80.90;;;;;;5065638;28;20064;-70
2021/05/31 00:12:52;;;;;;;7.30;1.90;;;16.60;81.00;;;;;;5064358;28;20012;-74
2021/05/31 00:15:19;;;;;;;6.82;2.13;;;16.60;81.20;;;;;;5067819;28;20016;-78
2021/05/31 00:17:48;;;;;;;6.07;1.52;;;16.60;81.20;;;;;;5063829;28;20027;-77
2021/05/31 00:20:15;;;;;;;4.72;1.90;;;16.60;81.30;;;;;;5066166;28;20020;-77
2021/05/31 00:22:42;;;;;;;4.25;1.50;;;16.60;81.30;;;;;;5065290;28;20376;-73
2021/05/31 00:25:09;;;;;;;7.18;1.33;;;16.60;81.30;;;;;;5064836;28;20044;-70
2021/05/31 00:27:37;;;;;;;8.43;1.95;;;16.60;81.40;;;;;;5068604;28;20020;-73
2021/05/31 00:30:07;;;;;;;4.78;1.60;;;16.60;81.30;;;;;;5067593;28;20024;-70
2021/05/31 00:32:35;;;;;;;4.85;1.40;;;16.50;81.30;;;;;;5064832;28;20030;-69
2021/05/31 00:35:01;;;;;;;6.63;1.58;;;16.50;81.30;;;;;;5066979;28;20021;-70
2021/05/31 00:37:28;;;;;;;5.32;1.60;;;16.50;81.30;;;;;;5066135;28;20484;-70
2021/05/31 00:39:54;;;;;;;3.03;1.48;;;16.50;81.20;;;;;;5068010;28;20372;-73
2021/05/31 00:42:21;;;;;;;8.82;1.75;;;16.50;81.30;;;;;;5064856;28;20081;-69
2021/05/31 00:44:47;;;;;;;7.07;2.25;;;16.50;81.20;;;;;;5066887;28;20043;-74
2021/05/31 00:47:16;;;;;;;8.40;1.50;;;16.50;81.20;;;;;;5065272;28;20012;-70
2021/05/31 00:49:43;;;;;;;4.20;1.35;;;16.50;81.20;;;;;;5070886;28;20510;-69
2021/05/31 00:52:09;;;;;;;7.18;1.55;;;16.50;81.30;;;;;;5069367;28;20345;-70
2021/05/31 00:54:36;;;;;;;3.63;1.77;;;16.50;81.30;;;;;;5073960;28;20060;-69
2021/05/31 00:57:04;;;;;;;5.47;1.67;;;16.50;81.30;;;;;;5068867;28;20060;-71
2021/05/31 00:59:31;;;;;;;5.57;1.45;;;16.50;81.30;;;;;;5070981;28;20543;-71
2021/05/31 01:01:57;;;;;;;6.03;2.13;;;16.50;81.20;;;;;;5068262;28;20051;-76
2021/05/31 01:04:24;;;;;;;5.32;1.92;;;16.40;81.00;;;;;;5068625;28;20102;-76
2021/05/31 01:07:14;;;;;;;10.68;2.67;;;16.40;81.10;;;;;;5053976;28;20044;-70
2021/05/31 01:10:10;;;;;;;5.50;2.15;;;16.40;81.00;;;;;;5068124;28;20032;-70
2021/05/31 01:12:55;;;;;;;6.53;2.40;;;16.50;81.10;;;;;;5069817;28;20012;-70
2021/05/31 01:15:33;;;;;;;8.50;2.73;;;16.40;81.00;;;;;;5069175;28;20060;-75
2021/05/31 01:18:17;;;;;;;4.15;2.15;;;16.40;81.00;;;;;;5068395;28;20128;-70
2021/05/31 01:21:09;;;;;;;6.80;2.33;;;16.40;81.10;;;;;;5070092;28;20023;-71
2021/05/31 01:23:38;;;;;;;6.97;3.15;;;16.40;81.10;;;;;;5070980;28;21062;-70
2021/05/31 01:26:12;;;;;;;7.15;2.22;;;16.40;81.20;;;;;;5070759;28;20499;-74
2021/05/31 01:28:48;;;;;;;7.65;3.53;;;16.40;81.30;;;;;;5065880;28;20021;-74
2021/05/31 01:31:21;;;;;;;10.63;2.35;;;16.40;81.20;;;;;;5067421;28;20142;-69
2021/05/31 01:33:50;;;;;;;8.15;2.50;;;16.40;81.20;;;;;;5066910;28;20491;-76
2021/05/31 01:36:20;;;;;;;7.43;2.22;;;16.40;81.30;;;;;;5067756;28;20020;-71
2021/05/31 01:38:49;;;;;;;9.05;2.55;;;16.40;81.30;;;;;;5067071;28;20139;-74
2021/05/31 01:41:16;;;;;;;6.78;2.17;;;16.40;81.40;;;;;;5070671;28;20024;-69
2021/05/31 01:43:44;;;;;;;7.07;1.98;;;16.40;81.40;;;;;;5068772;28;20017;-73
2021/05/31 01:46:13;;;;;;;8.65;2.13;;;16.50;81.50;;;;;;5051518;28;20376;-70
2021/05/31 01:48:43;;;;;;;4.88;1.83;;;16.40;81.40;;;;;;5067967;28;20008;-74
2021/05/31 01:51:10;;;;;;;6.03;3.05;;;16.40;81.40;;;;;;5067113;28;20029;-79
2021/05/31 01:53:37;;;;;;;6.38;2.53;;;16.40;81.50;;;;;;5068033;28;20517;-80
2021/05/31 01:56:04;;;;;;;6.25;2.17;;;16.40;81.40;;;;;;5068642;28;20067;-70
2021/05/31 01:58:30;;;;;;;8.60;3.15;;;16.40;81.40;;;;;;5067153;28;20028;-72
2021/05/31 02:00:58;;;;;;;6.82;1.88;;;16.40;81.40;;;;;;5068617;28;20021;-78
2021/05/31 02:03:25;;;;;;;4.20;1.83;;;16.50;81.60;;;;;;5068685;28;20015;-70
2021/05/31 02:05:51;;;;;;;9.13;2.50;;;16.50;81.50;;;;;;5069392;28;20004;-79
2021/05/31 02:08:18;;;;;;;1.85;1.30;;;16.50;81.60;;;;;;5067522;28;20017;-75
2021/05/31 02:10:46;;;;;;;3.85;1.70;;;16.50;81.60;;;;;;5069760;28;20111;-69
2021/05/31 02:13:15;;;;;;;4.15;1.73;;;16.40;81.50;;;;;;5067180;28;20012;-70
2021/05/31 02:15:41;;;;;;;4.75;1.70;;;16.40;81.50;;;;;;5064345;28;20025;-69
2021/05/31 02:18:35;;;;;;;5.93;2.58;;;16.40;81.50;;;;;;5066508;28;20468;-69
2021/05/31 02:21:12;;;;;;;5.30;1.60;;;16.40;82.00;;;;;;5068679;28;20043;-75
2021/05/31 02:23:41;;;;;;;5.03;1.05;;;16.40;81.40;;;;;;5065796;28;20118;-73
2021/05/31 02:26:09;;;;;;;1.90;1.10;;;16.40;81.40;;;;;;5067793;28;20090;-69
2021/05/31 02:28:36;;;;;;;3.58;1.30;;;16.40;81.40;;;;;;5068280;28;20021;-70
2021/05/31 02:31:03;;;;;;;6.43;1.45;;;16.40;81.30;;;;;;5063038;28;20439;-70
2021/05/31 02:33:30;;;;;;;5.82;1.30;;;16.40;81.30;;;;;;5070396;28;20426;-69
2021/05/31 02:35:56;;;;;;;11.10;2.17;;;16.40;81.30;;;;;;5066943;28;20028;-73
2021/05/31 02:38:23;;;;;;;8.30;2.88;;;16.40;81.30;;;;;;5064288;28;20121;-70
2021/05/31 02:40:49;;;;;;;7.03;1.50;;;16.40;81.30;;;;;;5068161;28;20021;-70
2021/05/31 02:43:16;;;;;;;4.75;1.05;;;16.40;81.30;;;;;;5065893;28;20102;-70
2021/05/31 02:45:43;;;;;;;2.05;0.63;;;16.40;81.40;;;;;;5060437;28;20079;-76
2021/05/31 02:48:09;;;;;;;2.25;0.98;;;16.40;81.40;;;;;;5068053;28;20471;-69
2021/05/31 02:50:36;;;;;;;2.30;0.85;;;16.40;81.40;;;;;;5068075;28;20067;-76
2021/05/31 02:53:03;;;;;;;4.75;1.10;;;16.40;81.30;;;;;;5066655;28;20020;-69
2021/05/31 02:55:31;;;;;;;2.85;1.20;;;16.40;81.40;;;;;;5068122;28;20023;-77
2021/05/31 02:57:59;;;;;;;4.82;1.45;;;16.40;81.40;;;;;;5068292;28;20103;-78
2021/05/31 03:00:27;;;;;;;5.45;0.90;;;16.40;81.40;;;;;;5068341;28;20028;-70
2021/05/31 03:02:54;;;;;;;4.60;1.30;;;16.40;81.40;;;;;;5065192;28;20104;-80
2021/05/31 03:05:28;;;;;;;5.53;1.25;;;16.40;81.40;;;;;;5066059;28;20017;-70
2021/05/31 03:07:59;;;;;;;3.15;1.10;;;16.40;81.50;;;;;;5063688;28;20024;-70
2021/05/31 03:10:26;;;;;;;4.75;1.70;;;16.40;81.60;;;;;;5065457;28;20066;-70
2021/05/31 03:12:53;;;;;;;2.90;0.93;;;16.40;81.60;;;;;;5069831;28;20012;-72
2021/05/31 03:15:21;;;;;;;2.92;1.55;;;16.40;81.70;;;;;;5068489;28;20040;-70
2021/05/31 03:17:49;;;;;;;3.88;1.13;;;16.40;81.70;;;;;;5066564;28;20122;-72
2021/05/31 03:20:17;;;;;;;7.85;1.77;;;16.40;81.80;;;;;;5067414;28;20017;-73
2021/05/31 03:22:44;;;;;;;4.97;1.25;;;16.40;81.90;;;;;;5065708;28;20023;-70
2021/05/31 03:25:11;;;;;;;5.97;2.13;;;16.40;81.90;;;;;;5047204;28;20049;-71
2021/05/31 03:27:39;;;;;;;5.72;1.27;;;16.40;82.00;;;;;;5045622;28;20483;-75
2021/05/31 03:30:11;;;;;;;6.97;1.70;;;16.40;82.00;;;;;;5049335;28;20040;-70
2021/05/31 03:32:38;;;;;;;3.85;2.03;;;16.40;82.10;;;;;;5043212;28;20047;-80
2021/05/31 03:35:06;;;;;;;7.20;2.00;;;16.40;82.10;;;;;;5048713;28;20017;-70
2021/05/31 03:37:33;;;;;;;4.75;1.40;;;16.40;82.20;;;;;;5047514;28;20029;-70
2021/05/31 03:39:59;;;;;;;4.22;1.42;;;16.40;82.20;;;;;;5044840;28;20021;-77
2021/05/31 03:42:26;;;;;;;3.72;1.73;;;16.40;82.30;;;;;;5046324;28;20013;-70
2021/05/31 03:44:52;;;;;;;5.53;1.60;;;16.40;82.30;;;;;;5046300;28;20021;-77
2021/05/31 03:47:19;;;;;;;9.77;2.42;;;16.40;82.40;;;;;;5048698;28;20021;-70
2021/05/31 03:49:45;;;;;;;10.77;1.90;;;16.40;82.50;;;;;;5043279;28;20027;-74
2021/05/31 03:52:12;;;;;;;7.18;3.28;;;16.40;82.60;;;;;;5047829;28;20044;-73
2021/05/31 03:54:38;;;;;;;7.65;2.20;;;16.40;82.60;;;;;;5046319;28;20029;-72
2021/05/31 03:57:05;;;;;;;8.40;2.30;;;16.40;82.70;;;;;;5047780;28;20511;-80
2021/05/31 03:59:31;;;;;;;5.80;1.55;;;16.40;82.90;;;;;;5048658;28;20096;-76
2021/05/31 04:01:58;;;;;;;5.97;2.60;;;16.30;83.00;;;;;;5043194;28;20013;-71
2021/05/31 04:04:24;;;;;;;18.77;11.60;;;16.30;83.00;;;;;;5040262;28;20524;-74
2021/05/31 04:12:20;;;;;;;7.60;5.45;;;16.30;83.10;;;;;;5045956;28;20292;-75
2021/05/31 04:14:47;;;;;;;6.38;4.38;;;16.30;83.00;;;;;;5041661;28;20024;-79
2021/05/31 04:17:13;;;;;;;4.45;2.90;;;16.30;83.00;;;;;;5048522;28;20036;-68
2021/05/31 04:19:39;;;;;;;5.03;3.97;;;16.30;82.90;;;;;;5045846;28;20020;-70
2021/05/31 04:22:06;;;;;;;8.23;6.05;;;16.30;82.80;;;;;;5045861;28;20484;-71
2021/05/31 04:24:32;;;;;;;7.57;5.25;;;16.30;82.80;;;;;;5047987;28;20044;-69
2021/05/31 04:26:59;;;;;;;4.70;3.72;;;16.30;82.70;;;;;;5062190;28;20082;-70
2021/05/31 04:29:25;;;;;;;5.13;3.38;;;16.30;82.70;;;;;;5064507;28;20027;-70
2021/05/31 04:31:52;;;;;;;4.13;2.40;;;16.30;82.70;;;;;;5043680;28;20618;-75
2021/05/31 04:34:19;;;;;;;4.07;2.33;;;16.30;82.70;;;;;;5059260;28;20021;-73
2021/05/31 04:36:45;;;;;;;5.15;2.08;;;16.20;82.70;;;;;;5058446;28;20060;-74
2021/05/31 04:39:12;;;;;;;3.15;1.30;;;16.20;82.70;;;;;;5061532;28;20017;-76
2021/05/31 04:41:39;;;;;;;2.55;0.90;;;16.20;82.70;;;;;;5061653;28;20552;-71
2021/05/31 04:44:06;;;;;;;2.55;1.15;;;16.20;82.60;;;;;;5056002;28;20025;-78
2021/05/31 04:46:33;;;;;;;2.25;1.13;;;16.20;82.50;;;;;;5059637;28;20096;-73
2021/05/31 04:49:01;;;;;;;1.17;0.70;;;16.20;82.40;;;;;;5066522;28;20082;-69
2021/05/31 04:51:28;;;;;;;3.58;1.00;;;16.20;82.30;;;;;;5065796;28;20127;-68
2021/05/31 04:53:57;;;;;;;1.95;0.93;;;16.20;82.20;;;;;;5063839;28;20027;-70
2021/05/31 04:56:24;;;;;;;0.98;0.80;;;16.10;82.00;;;;;;5066902;28;20040;-75
2021/05/31 04:58:51;;;;;;;2.95;0.75;;;16.10;81.90;;;;;;5065576;28;20008;-70
2021/05/31 05:01:18;;;;;;;3.08;0.90;;;16.10;81.80;;;;;;5068188;28;20522;-69
2021/05/31 05:03:45;;;;;;;1.75;0.77;;;16.10;81.70;;;;;;5064790;28;20035;-70
2021/05/31 05:06:11;;;;;;;2.65;0.77;;;16.10;81.60;;;;;;5064525;28;20021;-69
2021/05/31 05:08:38;;;;;;;2.80;0.82;;;16.10;81.50;;;;;;5067507;28;20025;-69
2021/05/31 05:11:04;;;;;;;2.72;0.80;;;16.10;81.40;;;;;;5065473;28;20052;-69
2021/05/31 05:13:31;;;;;;;1.58;0.73;;;16.10;81.30;;;;;;5066930;28;20021;-68
2021/05/31 05:15:57;;;;;;;1.30;0.55;;;16.00;81.10;;;;;;5065207;28;20491;-68
2021/05/31 05:18:24;;;;;;;1.88;0.60;;;16.00;81.10;;;;;;5049888;28;20379;-73
2021/05/31 05:20:51;;;;;;;1.45;0.70;;;16.00;81.10;;;;;;5049167;28;20388;-75
2021/05/31 05:23:17;;;;;;;4.95;0.80;;;16.00;81.10;;;;;;5061475;28;20116;-73
2021/05/31 05:25:45;;;;;;;0.75;0.70;;;16.00;81.20;;;;;;5066067;28;20045;-69
2021/05/31 05:28:12;;;;;;;0.93;0.80;;;15.90;81.70;;;;;;5065498;28;20016;-71
2021/05/31 05:30:38;;;;;;;1.38;0.70;;;15.90;81.00;;;;;;5066173;28;20095;-69
2021/05/31 05:33:05;;;;;;;3.72;0.93;;;15.90;81.00;;;;;;5065035;28;20646;-72
2021/05/31 05:35:48;;;;;;;1.92;0.70;;;15.90;81.00;;;;;;5068560;28;20099;-75
2021/05/31 05:38:36;;;;;;;1.42;0.77;;;15.90;81.00;;;;;;5068598;28;20455;-73
2021/05/31 05:44:01;;;;;;;3.05;1.80;;;15.80;81.00;;;;;;5070425;28;20600;-68
2021/05/31 05:47:42;;;;;;;1.98;1.13;;;15.80;81.00;;;;;;5064141;28;20028;-69
2021/05/31 05:49:17;;;;;;;1.83;0.57;;;15.80;81.00;;;;;;5058760;28;20035;-69
2021/05/31 05:51:43;;;;;;;2.28;0.82;;;15.80;81.00;;;;;;5068794;28;20017;-68
2021/05/31 05:54:10;;;;;;;2.28;0.70;;;15.80;81.10;;;;;;5069653;28;20016;-68
2021/05/31 05:56:37;;;;;;;1.25;0.47;;;15.80;81.20;;;;;;5067225;28;20029;-67
2021/05/31 05:59:03;;;;;;;1.00;0.65;;;15.80;81.20;;;;;;5066879;28;20427;-72
2021/05/31 06:01:30;;;;;;;2.70;0.85;;;15.80;81.20;;;;;;5070482;28;20086;-72
2021/05/31 06:04:39;;;;;;;1.42;0.50;;;15.80;81.10;;;;;;5061175;28;20025;-67
2021/05/31 06:07:45;;;;;;;1.45;0.82;;;15.80;81.10;;;;;;5060303;28;20041;-67
2021/05/31 06:10:12;;;;;;;2.15;0.95;;;15.80;81.00;;;;;;5062155;28;20023;-72
2021/05/31 06:12:39;;;;;;;2.38;0.75;;;15.80;81.10;;;;;;5060114;28;20106;-67
2021/05/31 06:15:07;;;;;;;1.17;0.60;;;15.80;81.10;;;;;;5060900;28;20028;-68
2021/05/31 06:17:34;;;;;;;0.77;0.50;;;15.80;81.30;;;;;;5064748;28;20153;-67
2021/05/31 06:20:02;;;;;;;2.05;0.75;;;15.80;81.30;;;;;;5060416;28;20530;-71
2021/05/31 06:22:32;;;;;;;2.17;1.48;;;15.80;81.30;;;;;;5061575;28;20104;-68
2021/05/31 06:24:59;;;;;;;1.50;0.70;;;15.80;81.30;;;;;;5060639;28;20048;-68
2021/05/31 06:27:26;;;;;;;2.28;0.63;;;15.80;81.30;;;;;;5064104;28;20088;-67
2021/05/31 06:29:52;;;;;;;1.95;0.70;;;15.80;81.40;;;;;;5062422;28;20048;-68
2021/05/31 06:32:19;;;;;;;2.72;0.70;;;15.80;81.50;;;;;;5064165;28;20535;-72
2021/05/31 06:34:45;;;;;;;1.98;1.25;;;15.80;81.50;;;;;;5063741;28;20147;-72
2021/05/31 06:37:12;;;;;;;1.48;0.70;;;15.80;81.60;;;;;;5062211;28;20735;-68
2021/05/31 06:39:38;;;;;;;2.80;0.68;;;15.80;81.80;;;;;;5063984;28;20522;-68
2021/05/31 06:42:05;;;;;;;1.77;0.70;;;15.80;81.80;;;;;;5063045;28;20045;-67
2021/05/31 06:44:32;;;;;;;3.25;1.15;;;15.80;82.00;;;;;;5049933;28;20107;-68
2021/05/31 06:46:58;;;;;;;1.73;1.48;;;15.80;82.10;;;;;;5062204;28;20024;-69
2021/05/31 06:49:25;;;;;;;1.88;0.70;;;15.80;82.20;;;;;;5064496;28;20025;-68
2021/05/31 06:51:51;;;;;;;1.38;0.65;;;15.80;82.30;;;;;;5062465;28;20506;-72
2021/05/31 06:54:18;;;;;;;0.90;0.60;;;15.80;82.30;;;;;;5063190;28;20013;-73
2021/05/31 06:56:44;;;;;;;1.08;0.60;;;15.80;82.40;;;;;;5064795;28;20057;-67
2021/05/31 06:59:12;;;;;;;1.70;0.47;;;15.80;82.40;;;;;;5062111;28;20498;-67
2021/05/31 07:01:39;;;;;;;2.42;0.52;;;15.80;82.50;;;;;;5063084;28;20032;-67
2021/05/31 07:04:05;;;;;;;1.73;0.70;;;15.80;82.60;;;;;;5042314;28;20403;-67
2021/05/31 07:06:32;;;;;;;1.27;0.50;;;15.80;82.70;;;;;;5062863;28;20103;-73
2021/05/31 07:08:59;;;;;;;1.95;0.57;;;15.80;82.80;;;;;;5063376;28;20687;-68
2021/05/31 07:11:25;;;;;;;2.58;0.52;;;15.80;82.90;;;;;;5064386;28;20122;-73
2021/05/31 07:13:54;;;;;;;2.88;1.55;;;15.90;83.00;;;;;;5063045;28;20051;-70
2021/05/31 07:16:21;;;;;;;1.48;0.60;;;15.90;83.20;;;;;;5063305;28;20027;-70
2021/05/31 07:18:47;;;;;;;0.47;0.30;;;15.90;83.30;;;;;;5063311;28;20017;-72
2021/05/31 07:21:14;;;;;;;1.95;0.50;;;16.00;83.50;;;;;;5062915;28;20589;-70
2021/05/31 07:23:40;;;;;;;2.17;0.52;;;16.00;83.60;;;;;;5063674;28;20095;-71
2021/05/31 07:26:07;;;;;;;1.85;0.50;;;16.00;83.70;;;;;;5058902;28;20052;-73
2021/05/31 07:28:34;;;;;;;0.57;0.50;;;16.10;83.90;;;;;;5065946;28;20041;-71
2021/05/31 07:31:01;;;;;;;2.67;0.80;;;16.10;84.00;;;;;;5067210;28;20503;-71
2021/05/31 07:33:28;;;;;;;0.68;0.47;;;16.10;84.20;;;;;;5065937;28;20024;-68
2021/05/31 07:35:56;;;;;;;3.20;0.95;;;16.20;84.20;;;;;;5067485;28;20382;-68
2021/05/31 07:38:23;;;;;;;2.33;0.70;;;16.30;84.30;;;;;;5064887;28;20016;-71
2021/05/31 07:40:49;;;;;;;2.42;0.88;;;16.30;84.40;;;;;;5068052;28;20016;-71
2021/05/31 07:43:16;;;;;;;1.00;0.60;;;16.30;84.40;;;;;;5066411;28;20025;-67
2021/05/31 07:45:43;;;;;;;1.92;0.60;;;16.30;84.50;;;;;;5066762;28;20146;-72
2021/05/31 07:48:09;;;;;;;1.55;0.60;;;16.40;84.60;;;;;;5062990;28;20127;-74
2021/05/31 07:50:36;;;;;;;4.15;1.85;;;16.40;85.20;;;;;;5064465;28;20048;-69
2021/05/31 07:53:02;;;;;;;2.55;0.80;;;16.40;84.50;;;;;;5053430;28;20495;-73
2021/05/31 07:55:29;;;;;;;1.20;0.60;;;16.40;84.50;;;;;;5064367;28;20488;-69
2021/05/31 07:57:56;;;;;;;1.33;0.75;;;16.50;84.50;;;;;;5062909;28;20630;-74
2021/05/31 08:00:24;;;;;;;0.98;0.73;;;16.40;84.40;;;;;;5065664;28;20065;-71
2021/05/31 08:02:51;;;;;;;5.40;1.73;;;16.50;84.50;;;;;;5064758;28;20135;-73
2021/05/31 08:05:19;;;;;;;3.17;0.77;;;16.50;84.50;;;;;;5067821;28;20107;-73
2021/05/31 08:07:47;;;;;;;4.30;1.05;;;16.50;84.40;;;;;;5067317;28;20514;-73
2021/05/31 08:10:14;;;;;;;2.03;1.13;;;16.50;84.40;;;;;;5066215;28;20034;-69
2021/05/31 08:12:41;;;;;;;2.45;0.88;;;16.50;84.40;;;;;;5064761;28;20126;-73
2021/05/31 08:15:10;;;;;;;2.38;0.75;;;16.40;84.40;;;;;;5066876;28;20017;-68
2021/05/31 08:17:36;;;;;;;2.72;0.85;;;16.50;84.50;;;;;;5067739;28;20033;-68
2021/05/31 08:20:05;;;;;;;1.73;0.80;;;16.50;84.40;;;;;;5067295;28;20036;-72
2021/05/31 08:22:32;;;;;;;3.22;1.35;;;16.50;84.40;;;;;;5065982;28;20013;-73
2021/05/31 08:24:59;;;;;;;5.97;1.10;;;16.40;84.40;;;;;;5066587;28;20052;-68
2021/05/31 08:27:25;;;;;;;2.90;0.70;;;16.50;84.40;;;;;;5064996;28;20013;-73
2021/05/31 08:29:52;;;;;;;2.70;0.90;;;16.50;84.40;;;;;;5066999;28;20015;-69
2021/05/31 08:32:20;;;;;;;4.80;0.70;;;16.50;84.50;;;;;;5066265;28;20100;-74
2021/05/31 08:34:46;;;;;;;3.95;1.10;;;16.50;84.50;;;;;;5047862;28;20418;-72
2021/05/31 08:37:13;;;;;;;5.65;2.17;;;16.50;84.50;;;;;;5066951;28;20483;-68
2021/05/31 08:39:41;;;;;;;1.55;1.05;;;16.50;84.50;;;;;;5063368;28;20012;-75
2021/05/31 08:42:07;;;;;;;4.45;1.63;;;16.50;84.60;;;;;;5062294;28;20033;-72
2021/05/31 08:44:34;;;;;;;2.30;1.05;;;16.50;84.60;;;;;;5066412;28;20013;-73
2021/05/31 08:47:03;;;;;;;6.95;1.27;;;16.50;84.80;;;;;;5067250;28;20008;-68
2021/05/31 08:49:30;;;;;;;2.67;1.27;;;16.50;84.80;;;;;;5066139;28;20052;-69
2021/05/31 08:51:57;;;;;;;3.38;0.93;;;16.50;84.80;;;;;;5065386;28;20074;-75
2021/05/31 08:54:23;;;;;;;2.55;0.95;;;16.50;84.90;;;;;;5067420;28;20020;-72
2021/05/31 08:56:50;;;;;;;4.30;1.13;;;16.50;84.90;;;;;;5064766;28;20028;-68
2021/05/31 08:59:16;;;;;;;2.72;0.88;;;16.50;85.00;;;;;;5064263;28;20021;-68
2021/05/31 09:01:43;;;;;;;4.28;1.17;;;16.50;85.00;;;;;;5064918;28;20012;-69
2021/05/31 09:04:14;;;;;;;3.72;1.20;;;16.50;85.10;;;;;;5066299;28;20019;-68
2021/05/31 09:06:52;;;;;;;3.25;1.02;;;16.50;85.20;;;;;;5067828;28;20027;-68
2021/05/31 09:09:19;;;;;;;2.00;1.27;;;16.60;85.30;;;;;;5062566;28;20467;-73
2021/05/31 09:11:56;;;;;;;2.47;1.55;;;16.60;85.30;;;;;;5070564;28;20016;-72
2021/05/31 09:14:23;;;;;;;4.53;1.55;;;16.60;85.40;;;;;;5067713;28;20027;-69
2021/05/31 09:16:49;;;;;;;1.67;1.08;;;16.60;85.40;;;;;;5068639;28;20054;-74
2021/05/31 09:19:16;;;;;;;2.97;1.23;;;16.60;85.50;;;;;;5068719;28;20021;-68
2021/05/31 09:21:43;;;;;;;3.05;1.35;;;16.70;85.50;;;;;;5070733;28;20071;-68
2021/05/31 09:24:12;;;;;;;2.30;0.95;;;16.70;85.50;;;;;;5069320;28;20037;-67
2021/05/31 09:26:48;;;;;;;3.67;0.88;;;16.70;85.50;;;;;;5068199;28;20020;-69
2021/05/31 09:29:16;;;;;;;3.50;1.10;;;16.70;85.60;;;;;;5072223;28;20583;-68
2021/05/31 09:31:42;;;;;;;3.72;1.10;;;16.80;85.60;;;;;;5067674;28;20103;-73
2021/05/31 09:34:13;;;;;;;3.30;1.30;;;16.80;85.60;;;;;;5069987;28;20024;-68
2021/05/31 09:36:54;;;;;;;3.78;1.08;;;16.80;85.60;;;;;;5067410;28;20391;-68
2021/05/31 09:39:29;;;;;;;3.40;0.77;;;16.80;85.80;;;;;;5068325;28;20099;-68
2021/05/31 09:42:02;;;;;;;;;;;16.90;85.80;;;;;;5069923;28;20401;-70
2021/05/31 09:44:29;;;;;;;3.05;1.05;;;16.90;85.90;;;;;;5068932;28;19958;-68
2021/05/31 09:46:56;;;;;;;1.55;0.80;;;17.00;85.90;;;;;;5065706;28;20021;-68
2021/05/31 09:49:26;;;;;;;5.78;1.23;;;17.00;85.90;;;;;;5068845;28;20024;-73
2021/05/31 09:51:55;;;;;;;2.67;1.52;;;17.10;86.10;;;;;;5066547;28;20079;-70
2021/05/31 09:54:42;;;;;;;1.48;1.05;;;17.10;86.30;;;;;;5068872;28;20021;-68
2021/05/31 09:57:20;;;;;;;1.98;1.40;;;17.20;86.40;;;;;;5068887;28;20037;-67
2021/05/31 09:59:54;;;;;;;1.67;0.75;;;17.30;86.50;;;;;;5068870;28;20098;-69
2021/05/31 10:03:23;;;;;;;5.00;1.73;;;17.40;86.70;;;;;;5051091;28;20482;-67
2021/05/31 10:08:51;;;;;;;3.30;1.00;;;17.50;86.50;;;;;;5067695;28;20013;-69
2021/05/31 10:10:46;;;;;;;5.60;1.55;;;17.60;86.30;;;;;;5055719;28;20059;-67
2021/05/31 10:13:12;;;;;;;7.53;1.40;;;17.60;85.90;;;;;;5067893;28;20067;-72
2021/05/31 10:15:41;;;;;;;3.85;1.45;;;17.70;85.60;;;;;;5068899;28;21012;-73
2021/05/31 10:18:09;;;;;;;3.10;1.13;;;17.80;85.30;;;;;;5067950;28;20071;-67
2021/05/31 10:20:37;;;;;;;3.40;1.30;;;17.90;84.80;;;;;;5070934;28;20482;-70
2021/05/31 10:23:06;;;;;;;6.70;1.85;;;17.90;84.50;;;;;;5062556;28;20017;-67
2021/05/31 10:25:34;;;;;;;5.97;1.08;;;18.00;84.10;;;;;;5067813;28;20445;-69
2021/05/31 10:28:23;;;;;;;4.22;1.00;;;18.00;83.80;;;;;;5069477;28;20100;-68
2021/05/31 10:30:59;;;;;;;3.90;1.30;;;18.10;83.60;;;;;;5068007;28;20044;-68
2021/05/31 10:33:26;;;;;;;4.68;1.42;;;18.20;83.40;;;;;;5063175;28;20080;-68
2021/05/31 10:35:55;;;;;;;5.10;1.20;;;18.20;83.00;;;;;;5065303;28;20027;-72
2021/05/31 10:38:23;;;;;;;3.92;1.27;;;18.30;82.70;;;;;;5066310;28;20472;-68
2021/05/31 10:40:52;;;;;;;5.78;1.95;;;18.30;82.50;;;;;;5067770;28;20506;-68
2021/05/31 10:43:22;;;;;;;7.10;1.88;;;18.40;82.00;;;;;;5069350;28;20028;-71
2021/05/31 10:46:01;;;;;;;6.70;1.40;;;18.50;81.60;;;;;;5066944;28;20019;-72
2021/05/31 10:48:27;;;;;;;3.28;1.30;;;18.50;81.20;;;;;;5068750;28;20017;-72
2021/05/31 10:51:00;;;;;;;8.43;2.97;;;18.50;80.90;;;;;;5069876;28;20013;-68
2021/05/31 10:53:30;;;;;;;7.45;2.17;;;18.50;80.60;;;;;;5068642;28;20926;-73
2021/05/31 10:56:08;;;;;;;8.52;2.88;;;18.50;80.30;;;;;;5064757;28;20025;-68
2021/05/31 10:58:40;;;;;;;7.70;2.53;;;18.40;80.30;;;;;;5065596;28;20391;-68
2021/05/31 11:01:09;;;;;;;10.45;3.33;;;18.40;80.40;;;;;;5067487;28;20008;-67
2021/05/31 11:04:01;;;;;;;7.78;2.90;;;18.40;80.60;;;;;;5069339;28;20567;-71
2021/05/31 11:06:34;;;;;;;6.30;2.50;;;18.30;80.60;;;;;;5065910;28;20021;-72
2021/05/31 11:09:07;;;;;;;14.85;3.17;;;18.20;80.20;;;;;;5066088;28;20017;-67
2021/05/31 11:11:50;;;;;;;11.50;2.45;;;18.20;80.10;;;;;;5066732;28;20107;-72
2021/05/31 11:14:33;;;;;;;10.25;3.72;;;18.20;80.00;;;;;;5064482;28;20024;-68
2021/05/31 11:17:02;;;;;;;10.05;1.60;;;18.10;80.00;;;;;;5067419;28;20047;-73
2021/05/31 11:19:45;;;;;;;5.07;1.63;;;18.10;80.10;;;;;;5063530;28;20028;-73
2021/05/31 11:22:15;;;;;;;7.35;2.25;;;18.10;80.20;;;;;;5068691;28;20074;-73
2021/05/31 11:24:55;;;;;;;3.53;1.40;;;18.10;80.50;;;;;;5062000;28;20055;-74
2021/05/31 11:27:36;;;;;;;11.05;2.20;;;18.10;80.80;;;;;;5064730;28;20016;-73
2021/05/31 11:30:09;;;;;;;12.70;2.25;;;18.00;80.90;;;;;;5068260;28;20028;-73
2021/05/31 11:32:36;;;;;;;7.90;2.53;;;18.00;81.10;;;;;;5066580;28;20024;-73
2021/05/31 11:35:06;;;;;;;6.68;1.90;;;18.00;81.20;;;;;;5065239;28;20029;-74
2021/05/31 11:37:33;;;;;;;4.82;1.77;;;18.00;81.40;;;;;;5068861;28;20029;-74
2021/05/31 11:40:03;;;;;;;5.55;1.33;;;17.90;81.40;;;;;;5066515;28;20017;-73
2021/05/31 11:42:30;;;;;;;6.32;2.25;;;17.90;81.50;;;;;;5067547;28;20017;-72
2021/05/31 11:45:00;;;;;;;10.27;1.60;;;17.90;81.60;;;;;;5062770;28;20445;-74
2021/05/31 11:47:28;;;;;;;5.32;1.83;;;17.90;81.60;;;;;;5066310;28;20019;-73
2021/05/31 11:49:55;;;;;;;7.10;1.83;;;17.90;81.60;;;;;;5067085;28;20013;-72
2021/05/31 11:52:28;;;;;;;5.85;1.52;;;17.90;81.70;;;;;;5069628;28;20039;-73
2021/05/31 11:54:55;;;;;;;7.18;2.13;;;17.90;81.50;;;;;;5064739;28;20103;-74
2021/05/31 11:57:25;;;;;;;5.65;1.73;;;18.00;81.30;;;;;;5065632;28;20387;-71
2021/05/31 11:59:56;;;;;;;3.53;1.70;;;18.00;80.90;;;;;;5067460;28;20024;-73
2021/05/31 12:02:27;;;;;;;8.73;2.42;;;18.10;80.70;;;;;;5063318;28;20013;-69
2021/05/31 12:04:54;;;;;;;9.50;2.20;;;18.20;80.50;;;;;;5066136;28;20028;-70
2021/05/31 12:07:24;;;;;;;8.32;1.75;;;18.20;80.40;;;;;;5066456;28;20020;-67
2021/05/31 12:09:52;;;;;;;4.47;1.90;;;18.30;80.00;;;;;;5065012;28;20015;-69
2021/05/31 12:12:20;;;;;;;3.97;1.83;;;18.40;79.20;;;;;;5065345;28;20016;-68
2021/05/31 12:14:53;;;;;;;8.43;2.20;;;18.40;78.30;;;;;;5061818;28;20055;-71
2021/05/31 12:17:22;;;;;;;7.30;2.65;;;18.50;77.90;;;;;;5064800;28;20025;-73
2021/05/31 12:19:50;;;;;;;8.02;1.88;;;18.60;77.20;;;;;;5066461;28;20013;-69
2021/05/31 12:22:22;;;;;;;7.15;1.85;;;18.70;76.90;;;;;;5067114;28;20107;-68
2021/05/31 12:24:51;;;;;;;6.97;2.08;;;18.80;76.90;;;;;;5063815;28;20028;-74
2021/05/31 12:27:32;;;;;;;12.90;2.67;;;18.80;77.00;;;;;;5066241;28;20062;-67
2021/05/31 12:30:38;;;;;;;10.48;3.22;;;18.90;75.90;;;;;;5063795;28;20066;-71
2021/05/31 12:33:31;;;;;;;4.85;2.03;;;18.90;75.90;;;;;;5060901;28;20021;-72
2021/05/31 12:36:37;;;;;;;5.65;1.52;;;18.90;75.50;;;;;;5062104;28;20028;-68
2021/05/31 12:39:43;;;;;;;5.60;1.63;;;18.90;75.30;;;;;;5067452;28;20416;-69
2021/05/31 12:42:49;;;;;;;7.10;2.30;;;18.90;75.30;;;;;;5058000;28;20021;-72
2021/05/31 12:45:17;;;;;;;9.85;2.08;;;18.90;75.30;;;;;;5047342;28;20379;-68
2021/05/31 12:47:46;;;;;;;9.23;1.80;;;18.80;75.10;;;;;;5066205;28;20371;-74
2021/05/31 12:50:32;;;;;;;6.55;1.85;;;18.80;75.00;;;;;;5058189;28;20029;-73
2021/05/31 12:53:06;;;;;;;5.55;1.77;;;18.80;75.20;;;;;;5058980;28;20029;-70
2021/05/31 12:55:34;;;;;;;5.35;1.73;;;18.70;75.40;;;;;;5057938;28;20086;-68
2021/05/31 12:58:40;;;;;;;9.18;2.05;;;18.70;75.50;;;;;;5054271;28;20036;-67
2021/05/31 13:01:47;;;;;;;11.00;2.30;;;18.60;75.70;;;;;;5057218;28;20112;-68
2021/05/31 13:04:53;;;;;;;4.72;1.70;;;18.60;76.20;;;;;;5056277;28;20096;-67
2021/05/31 13:07:59;;;;;;;9.10;2.45;;;18.60;76.50;;;;;;5055784;28;20052;-73
2021/05/31 13:11:07;;;;;;;6.95;1.48;;;18.50;76.70;;;;;;5057121;28;20021;-70
2021/05/31 13:14:13;;;;;;;7.50;2.15;;;18.50;77.10;;;;;;5067098;28;20028;-71